Time;durP1;ratioP1;P1;durP2;ratioP2;P2;SDS_P1;SDS_P2;PMS_P1;PMS_P2;Temp;Humidity;BMP_temperature;BMP_pressure;BME280_temperature;BME280_humidity;BME280_pressure;Samples;Min_cycle;Max_cycle;Signal;HPM_P1;HPM_P2
2020/12/29 00:01:45;;;;;;;19.40;11.77;;;1.20;99.90;;;;;;5052383;28;20116;-70
2020/12/29 00:04:15;;;;;;;18.00;11.27;;;1.30;99.90;;;;;;5051412;28;20055;-70
2020/12/29 00:06:58;;;;;;;19.55;11.90;;;1.40;99.90;;;;;;5050669;28;20044;-69
2020/12/29 00:09:26;;;;;;;15.80;10.57;;;1.40;99.90;;;;;;5043908;28;20048;-70
2020/12/29 00:11:55;;;;;;;19.67;10.80;;;1.40;99.90;;;;;;5050869;28;20045;-69
2020/12/29 00:14:23;;;;;;;16.92;10.40;;;1.40;99.90;;;;;;5052002;28;20067;-69
2020/12/29 00:16:50;;;;;;;16.55;10.63;;;1.40;99.90;;;;;;5052318;28;20067;-69
2020/12/29 00:19:23;;;;;;;17.85;11.20;;;1.50;99.90;;;;;;5052649;28;20444;-70
2020/12/29 00:21:50;;;;;;;14.55;9.32;;;1.50;99.90;;;;;;5051443;28;20407;-72
2020/12/29 00:24:17;;;;;;;13.82;9.00;;;1.50;99.90;;;;;;5051033;28;20041;-70
2020/12/29 00:27:00;;;;;;;15.15;9.88;;;1.50;99.90;;;;;;5052020;28;20049;-70
2020/12/29 00:29:26;;;;;;;14.35;9.32;;;1.50;99.90;;;;;;5051192;28;20045;-70
2020/12/29 00:31:53;;;;;;;16.08;9.30;;;1.50;99.90;;;;;;5043470;28;20046;-70
2020/12/29 00:34:19;;;;;;;15.93;9.98;;;1.50;99.90;;;;;;5035844;28;20059;-70
2020/12/29 00:36:46;;;;;;;16.00;9.70;;;1.50;99.90;;;;;;5034723;28;20403;-70
2020/12/29 01:26:26;;;;;;;12.75;8.32;;;1.30;99.90;;;;;;5043516;28;20139;-70
2020/12/29 01:28:53;;;;;;;11.18;7.93;;;1.40;99.90;;;;;;5073492;28;20056;-70
2020/12/29 01:31:30;;;;;;;12.65;7.68;;;1.40;99.90;;;;;;5090860;28;20494;-71
2020/12/29 01:33:58;;;;;;;11.50;6.97;;;1.40;99.90;;;;;;5106144;28;20051;-71
2020/12/29 01:36:26;;;;;;;10.95;6.75;;;1.50;99.90;;;;;;5072318;28;20040;-71
2020/12/29 01:38:53;;;;;;;11.88;6.72;;;1.50;99.90;;;;;;5091639;28;20059;-71
2020/12/29 01:41:21;;;;;;;11.35;7.20;;;1.50;99.90;;;;;;5095741;28;20047;-71
2020/12/29 01:43:49;;;;;;;11.32;6.50;;;1.60;99.90;;;;;;5091088;28;20040;-71
2020/12/29 01:46:16;;;;;;;10.63;6.40;;;1.60;99.90;;;;;;5090418;28;20055;-71
2020/12/29 01:48:43;;;;;;;16.35;9.88;;;1.70;99.90;;;;;;5090391;28;20047;-71
2020/12/29 01:51:11;;;;;;;16.45;9.55;;;1.70;99.90;;;;;;5090696;28;20055;-71
2020/12/29 01:53:39;;;;;;;9.75;6.90;;;1.80;99.90;;;;;;5089831;28;20095;-71
2020/12/29 01:56:12;;;;;;;9.73;6.25;;;1.70;99.90;;;;;;5090589;28;20060;-71
2020/12/29 01:58:41;;;;;;;10.82;6.38;;;1.80;99.90;;;;;;5086289;28;20097;-71
2020/12/29 02:01:08;;;;;;;9.55;6.00;;;1.70;99.90;;;;;;5090662;28;20144;-70
2020/12/29 02:03:35;;;;;;;11.27;5.90;;;1.80;99.90;;;;;;5090533;28;20125;-71
2020/12/29 02:06:02;;;;;;;11.48;6.45;;;1.80;99.90;;;;;;5080638;28;20862;-71
2020/12/29 02:08:29;;;;;;;9.23;6.10;;;1.90;99.90;;;;;;5106477;28;20044;-71
2020/12/29 02:10:56;;;;;;;11.52;5.40;;;1.90;99.90;;;;;;5088970;28;20048;-70
2020/12/29 02:13:23;;;;;;;10.50;6.82;;;2.00;99.90;;;;;;5090541;28;20428;-70
2020/12/29 02:15:49;;;;;;;8.88;5.75;;;2.00;99.90;;;;;;5088759;28;20047;-70
2020/12/29 02:18:16;;;;;;;9.77;6.45;;;2.10;99.90;;;;;;5091046;28;20078;-70
2020/12/29 02:20:42;;;;;;;9.40;6.15;;;2.00;99.90;;;;;;5089337;28;20142;-70
2020/12/29 02:23:10;;;;;;;12.25;6.40;;;2.00;99.90;;;;;;5090694;28;20050;-70
2020/12/29 02:25:37;;;;;;;11.85;6.50;;;1.90;99.90;;;;;;5071147;28;20486;-70
2020/12/29 02:28:05;;;;;;;9.70;6.20;;;1.90;99.90;;;;;;5090484;28;20044;-69
2020/12/29 02:30:33;;;;;;;10.38;7.07;;;1.80;99.90;;;;;;5089621;28;20083;-71
2020/12/29 02:32:59;;;;;;;10.75;6.70;;;1.80;99.90;;;;;;5090628;28;20040;-71
2020/12/29 02:35:26;;;;;;;11.90;6.80;;;1.80;99.90;;;;;;5090602;28;20070;-71
2020/12/29 02:37:52;;;;;;;11.02;6.68;;;1.70;99.90;;;;;;5070824;28;20055;-71
2020/12/29 02:40:19;;;;;;;10.07;6.70;;;1.70;99.90;;;;;;5072574;28;20040;-71
2020/12/29 02:42:45;;;;;;;12.50;6.97;;;1.70;99.90;;;;;;5089264;28;20036;-71
2020/12/29 02:45:12;;;;;;;10.63;6.78;;;1.70;99.90;;;;;;5090564;28;20070;-71
2020/12/29 02:47:38;;;;;;;10.05;6.57;;;1.70;99.90;;;;;;5089085;28;20468;-70
2020/12/29 02:50:06;;;;;;;11.55;7.13;;;1.70;99.90;;;;;;5090483;28;20058;-70
2020/12/29 02:52:33;;;;;;;10.10;6.75;;;1.70;99.90;;;;;;5072085;28;20044;-70
2020/12/29 02:55:00;;;;;;;10.00;7.07;;;1.70;99.90;;;;;;5089028;28;20051;-70
2020/12/29 02:57:26;;;;;;;10.32;6.30;;;1.70;99.90;;;;;;5090093;28;20484;-69
2020/12/29 02:59:53;;;;;;;10.30;6.45;;;1.70;99.90;;;;;;5092693;28;20060;-71
2020/12/29 03:02:19;;;;;;;9.88;6.18;;;1.70;99.90;;;;;;5087123;28;20048;-70
2020/12/29 03:04:45;;;;;;;10.18;5.90;;;1.80;99.90;;;;;;5088481;28;20057;-70
2020/12/29 03:07:13;;;;;;;8.68;5.82;;;1.80;99.90;;;;;;5089339;28;20051;-71
2020/12/29 03:09:41;;;;;;;10.38;5.70;;;1.80;99.90;;;;;;5088678;28;20040;-71
2020/12/29 03:12:07;;;;;;;8.55;5.68;;;1.90;99.90;;;;;;5091939;28;20063;-70
2020/12/29 03:14:34;;;;;;;8.38;5.30;;;1.90;99.90;;;;;;5092144;28;20051;-71
2020/12/29 03:17:01;;;;;;;8.10;4.95;;;1.90;99.90;;;;;;5093861;28;20084;-70
2020/12/29 03:19:27;;;;;;;7.25;4.32;;;2.00;99.90;;;;;;5093308;28;20452;-69
2020/12/29 03:21:54;;;;;;;6.75;4.25;;;2.10;99.90;;;;;;5093494;28;20048;-70
2020/12/29 03:24:21;;;;;;;6.53;4.38;;;2.20;99.90;;;;;;5091992;28;20130;-70
2020/12/29 03:26:47;;;;;;;7.03;4.30;;;2.30;99.90;;;;;;5082539;28;20040;-71
2020/12/29 03:29:14;;;;;;;8.85;4.47;;;2.40;99.90;;;;;;5091798;28;20054;-70
2020/12/29 03:31:45;;;;;;;10.88;3.92;;;2.40;99.90;;;;;;5091375;28;20044;-69
2020/12/29 03:34:37;;;;;;;6.32;3.95;;;2.40;99.90;;;;;;5108826;28;20044;-69
2020/12/29 03:37:11;;;;;;;6.85;4.07;;;2.40;99.90;;;;;;5090992;28;20387;-71
2020/12/29 03:39:38;;;;;;;6.00;3.70;;;2.40;99.90;;;;;;5089838;28;20044;-71
2020/12/29 03:42:05;;;;;;;6.68;3.70;;;2.40;99.90;;;;;;5106362;28;20051;-70
2020/12/29 03:44:33;;;;;;;7.57;4.50;;;2.50;99.90;;;;;;5093242;28;20077;-70
2020/12/29 03:47:01;;;;;;;7.93;4.00;;;2.40;99.90;;;;;;5092639;28;20040;-71
2020/12/29 03:49:27;;;;;;;6.25;3.80;;;2.40;99.90;;;;;;5086438;28;20048;-69
2020/12/29 03:51:54;;;;;;;6.22;3.65;;;2.50;99.90;;;;;;5084678;28;20049;-69
2020/12/29 03:54:20;;;;;;;6.63;3.95;;;2.50;99.90;;;;;;5092824;28;20479;-70
2020/12/29 03:56:47;;;;;;;6.28;3.90;;;2.50;99.90;;;;;;5091100;28;20063;-69
2020/12/29 03:59:13;;;;;;;6.25;3.60;;;2.50;99.90;;;;;;5080936;28;20067;-70
2020/12/29 04:01:40;;;;;;;5.65;3.40;;;2.60;99.90;;;;;;5090868;28;20052;-71
2020/12/29 04:04:08;;;;;;;4.25;3.10;;;2.60;99.90;;;;;;5092576;28;20044;-70
2020/12/29 04:06:35;;;;;;;5.63;3.40;;;2.60;99.90;;;;;;5086170;28;20044;-70
2020/12/29 04:09:03;;;;;;;8.10;3.53;;;2.60;99.90;;;;;;5087666;28;20387;-69
2020/12/29 04:11:30;;;;;;;10.02;3.25;;;2.60;99.90;;;;;;5091136;28;20073;-72
2020/12/29 04:13:56;;;;;;;5.30;2.80;;;2.70;99.90;;;;;;5091841;28;20130;-70
2020/12/29 04:16:23;;;;;;;5.22;2.65;;;2.60;99.90;;;;;;5108399;28;20438;-70
2020/12/29 04:18:50;;;;;;;4.47;2.70;;;2.70;99.90;;;;;;5092434;28;20055;-69
2020/12/29 04:21:18;;;;;;;5.03;3.08;;;2.70;99.90;;;;;;5073706;28;20468;-69
2020/12/29 04:23:45;;;;;;;4.60;2.70;;;2.70;99.90;;;;;;5091702;28;20048;-69
2020/12/29 04:26:13;;;;;;;4.10;2.30;;;2.70;99.90;;;;;;5090417;28;20051;-70
2020/12/29 04:28:40;;;;;;;4.55;2.60;;;2.70;99.90;;;;;;5091216;28;20462;-69
2020/12/29 04:31:13;;;;;;;6.07;2.50;;;2.80;99.90;;;;;;5080270;28;20054;-70
2020/12/29 04:33:40;;;;;;;5.18;2.70;;;2.80;99.90;;;;;;5090839;28;20066;-69
2020/12/29 04:36:07;;;;;;;4.53;2.53;;;2.80;99.90;;;;;;5090549;28;20105;-69
2020/12/29 04:38:35;;;;;;;4.07;2.60;;;2.80;99.90;;;;;;5092390;28;20044;-69
2020/12/29 04:41:02;;;;;;;6.05;2.30;;;2.80;99.90;;;;;;5091705;28;20052;-69
2020/12/29 04:43:32;;;;;;;4.65;2.33;;;2.80;99.90;;;;;;5087249;28;20138;-69
2020/12/29 04:46:01;;;;;;;4.53;2.33;;;2.80;99.90;;;;;;5091520;28;20489;-70
2020/12/29 04:48:28;;;;;;;4.18;2.35;;;2.80;99.90;;;;;;5090912;28;20052;-70
2020/12/29 04:51:07;;;;;;;4.55;2.35;;;2.90;99.90;;;;;;5073772;28;20147;-69
2020/12/29 04:53:36;;;;;;;4.78;2.30;;;2.80;99.90;;;;;;5092278;28;20048;-70
2020/12/29 04:56:07;;;;;;;3.58;1.95;;;2.90;99.90;;;;;;5090733;28;20051;-69
2020/12/29 04:58:36;;;;;;;4.72;2.05;;;2.90;99.90;;;;;;5085935;28;20390;-69
2020/12/29 05:01:05;;;;;;;4.07;2.30;;;2.90;99.90;;;;;;5089735;28;20580;-70
2020/12/29 05:03:42;;;;;;;5.70;2.45;;;3.00;99.90;;;;;;5091289;28;20052;-70
2020/12/29 05:06:09;;;;;;;3.75;2.30;;;3.00;99.90;;;;;;5090422;28;20044;-69
2020/12/29 05:08:36;;;;;;;4.07;2.30;;;3.00;99.90;;;;;;5091862;28;20047;-70
2020/12/29 05:11:03;;;;;;;4.10;2.20;;;3.00;99.90;;;;;;5073156;28;20051;-70
2020/12/29 05:13:29;;;;;;;3.90;2.00;;;3.00;99.90;;;;;;5086527;28;20048;-70
2020/12/29 05:15:56;;;;;;;4.28;2.15;;;3.00;99.90;;;;;;5087832;28;20048;-69
2020/12/29 05:18:25;;;;;;;4.60;2.17;;;3.00;99.90;;;;;;5102523;28;20083;-70
2020/12/29 05:20:52;;;;;;;2.63;1.73;;;3.00;99.90;;;;;;5086921;28;20068;-69
2020/12/29 05:23:18;;;;;;;5.20;2.10;;;3.00;99.90;;;;;;5090245;28;20086;-69
2020/12/29 05:25:46;;;;;;;3.90;1.80;;;3.10;99.90;;;;;;5088637;28;20044;-69
2020/12/29 05:28:13;;;;;;;3.72;1.90;;;3.10;99.90;;;;;;5091033;28;20051;-69
2020/12/29 05:30:40;;;;;;;2.95;1.63;;;3.20;99.90;;;;;;5088804;28;20040;-70
2020/12/29 05:33:11;;;;;;;3.65;1.83;;;3.20;99.90;;;;;;5090905;28;20052;-67
2020/12/29 05:35:39;;;;;;;3.92;1.90;;;3.30;99.90;;;;;;5082775;28;20447;-69
2020/12/29 05:38:08;;;;;;;4.57;1.90;;;3.30;99.90;;;;;;5091169;28;20055;-68
2020/12/29 05:40:35;;;;;;;8.00;1.95;;;3.30;99.90;;;;;;5073018;28;20054;-68
2020/12/29 05:43:02;;;;;;;4.78;2.28;;;3.40;99.90;;;;;;5077720;28;20063;-69
2020/12/29 05:45:31;;;;;;;8.32;2.22;;;3.40;99.90;;;;;;5087248;28;20052;-69
2020/12/29 05:47:59;;;;;;;4.10;1.90;;;3.30;99.90;;;;;;5082083;28;20052;-69
2020/12/29 05:50:27;;;;;;;3.30;1.80;;;3.30;99.90;;;;;;5086102;28;20413;-69
2020/12/29 05:53:05;;;;;;;4.68;2.17;;;3.30;99.90;;;;;;5086617;28;20390;-69
2020/12/29 05:55:32;;;;;;;3.22;1.85;;;3.20;99.90;;;;;;5104936;28;20410;-69
2020/12/29 05:58:07;;;;;;;5.60;1.80;;;3.20;99.90;;;;;;5090211;28;20141;-69
2020/12/29 06:00:35;;;;;;;3.80;1.90;;;3.20;99.90;;;;;;5083369;28;20052;-69
2020/12/29 06:03:03;;;;;;;3.20;1.80;;;3.20;99.90;;;;;;5090743;28;20414;-69
2020/12/29 06:05:32;;;;;;;3.63;1.77;;;3.20;99.90;;;;;;5089171;28;20373;-69
2020/12/29 06:08:00;;;;;;;4.32;1.90;;;3.20;99.90;;;;;;5089612;28;20059;-69
2020/12/29 06:10:29;;;;;;;3.35;1.90;;;3.20;99.90;;;;;;5083179;28;20052;-68
2020/12/29 06:12:57;;;;;;;3.80;1.92;;;3.30;99.90;;;;;;5090675;28;20076;-70
2020/12/29 06:15:25;;;;;;;3.90;2.28;;;3.30;99.90;;;;;;5072234;28;20052;-69
2020/12/29 06:17:57;;;;;;;3.30;1.90;;;3.40;99.90;;;;;;5068982;28;20048;-69
2020/12/29 06:20:39;;;;;;;4.47;2.10;;;3.50;99.90;;;;;;5072288;28;20478;-68
2020/12/29 06:23:06;;;;;;;4.03;1.85;;;3.50;99.90;;;;;;5086076;28;20147;-69
2020/12/29 06:25:37;;;;;;;4.13;1.85;;;3.60;99.90;;;;;;5060317;28;20079;-68
2020/12/29 06:28:05;;;;;;;2.25;1.55;;;3.50;99.90;;;;;;5078750;28;20127;-69
2020/12/29 06:30:34;;;;;;;4.07;1.70;;;3.50;99.90;;;;;;5075650;28;20040;-69
2020/12/29 06:33:01;;;;;;;3.20;2.00;;;3.50;99.90;;;;;;5074108;28;20076;-68
2020/12/29 06:35:28;;;;;;;5.75;1.70;;;3.40;99.90;;;;;;5072443;28;20045;-71
2020/12/29 06:38:06;;;;;;;5.32;1.80;;;3.50;99.90;;;;;;5090900;28;20051;-68
2020/12/29 06:40:34;;;;;;;3.72;1.75;;;3.50;99.90;;;;;;5083845;28;20060;-69
2020/12/29 06:43:05;;;;;;;4.75;2.00;;;3.40;99.90;;;;;;5081004;28;20399;-69
2020/12/29 06:45:33;;;;;;;5.15;1.73;;;3.50;99.90;;;;;;5083717;28;20056;-68
2020/12/29 06:48:00;;;;;;;6.45;2.17;;;3.50;99.90;;;;;;5093549;28;20055;-68
2020/12/29 06:50:31;;;;;;;4.22;2.30;;;3.50;99.90;;;;;;5092682;28;20051;-70
2020/12/29 06:53:05;;;;;;;5.30;2.00;;;3.60;99.90;;;;;;5076217;28;20044;-68
2020/12/29 06:55:37;;;;;;;4.10;1.92;;;3.50;99.90;;;;;;5082263;28;20438;-68
2020/12/29 06:58:05;;;;;;;4.00;2.10;;;3.50;99.90;;;;;;5091056;28;20386;-69
2020/12/29 07:00:34;;;;;;;5.95;2.10;;;3.50;99.90;;;;;;5096984;28;20048;-68
2020/12/29 07:03:01;;;;;;;4.50;1.90;;;3.50;99.90;;;;;;5094178;28;20055;-69
2020/12/29 07:05:30;;;;;;;4.35;1.90;;;3.60;99.90;;;;;;5085668;28;20063;-68
2020/12/29 07:08:04;;;;;;;;;;;3.60;99.90;;;;;;5094574;28;20455;-68
2020/12/29 07:10:35;;;;;;;5.75;1.95;;;3.70;99.90;;;;;;5075705;28;19920;-69
2020/12/29 07:13:06;;;;;;;4.53;2.42;;;3.70;99.90;;;;;;5086575;28;20041;-69
2020/12/29 07:16:09;;;;;;;8.85;2.53;;;3.70;99.90;;;;;;5078206;28;20059;-69
2020/12/29 07:18:42;;;;;;;6.03;2.08;;;3.70;99.90;;;;;;5084054;28;20040;-69
2020/12/29 07:21:25;;;;;;;5.65;1.83;;;3.60;99.90;;;;;;5093457;28;20470;-69
2020/12/29 07:23:52;;;;;;;3.58;1.80;;;3.60;99.90;;;;;;5092680;28;20062;-69
2020/12/29 07:26:35;;;;;;;6.30;2.00;;;3.60;99.90;;;;;;5093420;28;20052;-69
2020/12/29 07:29:04;;;;;;;8.63;2.30;;;3.70;99.90;;;;;;5092513;28;20040;-70
2020/12/29 07:31:36;;;;;;;4.50;1.80;;;3.80;99.90;;;;;;5093351;28;20047;-71
2020/12/29 07:34:03;;;;;;;3.75;1.70;;;3.80;99.90;;;;;;5108548;28;20043;-69
2020/12/29 07:36:31;;;;;;;2.45;1.40;;;3.80;99.90;;;;;;5093395;28;20134;-70
2020/12/29 07:39:00;;;;;;;3.05;1.60;;;3.80;99.90;;;;;;5086691;28;20043;-70
2020/12/29 07:41:27;;;;;;;3.20;1.50;;;3.90;99.90;;;;;;5089756;28;20048;-69
2020/12/29 07:43:53;;;;;;;3.10;1.40;;;3.90;99.90;;;;;;5091582;28;20060;-69
2020/12/29 07:46:20;;;;;;;6.47;1.75;;;4.00;99.90;;;;;;5091620;28;20048;-69
2020/12/29 07:49:01;;;;;;;3.22;1.50;;;4.10;99.90;;;;;;5091682;28;20044;-69
2020/12/29 07:51:28;;;;;;;3.13;1.60;;;4.10;99.90;;;;;;5091822;28;20054;-69
2020/12/29 07:54:01;;;;;;;2.85;1.40;;;4.10;99.90;;;;;;5090646;28;20059;-68
2020/12/29 07:56:28;;;;;;;4.25;1.80;;;4.10;99.90;;;;;;5084607;28;20055;-69
2020/12/29 07:59:09;;;;;;;2.58;1.30;;;4.10;99.90;;;;;;5088534;28;20067;-69
2020/12/29 08:01:49;;;;;;;2.65;1.40;;;4.10;99.90;;;;;;5092942;28;20434;-69
2020/12/29 08:04:26;;;;;;;2.72;1.35;;;4.20;99.90;;;;;;5092025;28;20052;-70
2020/12/29 08:06:52;;;;;;;5.53;1.58;;;4.20;99.90;;;;;;5088557;28;20044;-68
2020/12/29 08:09:19;;;;;;;3.42;1.50;;;4.20;99.90;;;;;;5081877;28;20043;-68
2020/12/29 08:11:46;;;;;;;4.25;1.40;;;4.20;99.90;;;;;;5082169;28;20044;-69
2020/12/29 08:14:12;;;;;;;3.35;1.50;;;4.20;99.90;;;;;;5092584;28;20036;-69
2020/12/29 08:16:39;;;;;;;2.55;1.40;;;4.30;99.90;;;;;;5074567;28;20131;-69
2020/12/29 08:19:11;;;;;;;3.88;1.55;;;4.30;99.90;;;;;;5091260;28;20052;-69
2020/12/29 08:21:39;;;;;;;4.78;1.70;;;4.30;99.90;;;;;;5065518;28;20145;-68
2020/12/29 08:24:06;;;;;;;5.18;1.80;;;4.30;99.90;;;;;;5091564;28;20052;-69
2020/12/29 08:26:34;;;;;;;3.13;1.40;;;4.30;99.90;;;;;;5090546;28;20044;-69
2020/12/29 08:29:03;;;;;;;3.53;1.70;;;4.40;99.90;;;;;;5074009;28;20047;-68
2020/12/29 08:31:30;;;;;;;3.83;1.48;;;4.40;99.90;;;;;;5091173;28;20460;-69
2020/12/29 08:33:58;;;;;;;3.58;1.55;;;4.50;99.90;;;;;;5092060;28;20506;-67
2020/12/29 08:36:27;;;;;;;2.42;1.40;;;4.50;99.90;;;;;;5091944;28;20051;-67
2020/12/29 08:39:19;;;;;;;3.33;1.35;;;4.50;99.90;;;;;;5090029;28;20056;-68
2020/12/29 08:41:52;;;;;;;2.67;1.20;;;4.40;99.90;;;;;;5091703;28;20055;-66
2020/12/29 08:44:20;;;;;;;1.77;1.10;;;4.30;99.90;;;;;;5090606;28;20047;-66
2020/12/29 08:46:46;;;;;;;1.83;1.00;;;3.80;99.90;;;;;;5091899;28;20136;-65
2020/12/29 08:49:13;;;;;;;2.03;1.00;;;3.30;99.90;;;;;;5089657;28;20044;-66
2020/12/29 08:51:42;;;;;;;1.33;0.90;;;2.90;99.90;;;;;;5085241;28;20040;-65
2020/12/29 08:54:18;;;;;;;1.33;0.90;;;2.70;99.90;;;;;;5090667;28;20475;-68
2020/12/29 08:56:45;;;;;;;1.67;0.80;;;2.60;99.90;;;;;;5092196;28;20052;-68
2020/12/29 08:59:14;;;;;;;1.85;0.90;;;2.50;99.90;;;;;;5073648;28;20051;-67
2020/12/29 09:01:54;;;;;;;1.20;0.80;;;2.40;99.90;;;;;;5090047;28;20048;-65
2020/12/29 09:04:31;;;;;;;2.38;0.90;;;2.30;99.90;;;;;;5091859;28;20052;-67
2020/12/29 09:06:59;;;;;;;1.40;0.85;;;2.30;99.90;;;;;;5090324;28;20070;-70
2020/12/29 09:09:27;;;;;;;1.90;0.85;;;2.40;99.90;;;;;;5090668;28;20406;-70
2020/12/29 09:12:13;;;;;;;1.25;0.93;;;2.30;99.90;;;;;;5073447;28;20453;-67
2020/12/29 09:14:51;;;;;;;1.75;0.80;;;2.30;99.90;;;;;;5090092;28;20046;-70
2020/12/29 09:17:18;;;;;;;2.47;1.13;;;2.20;99.90;;;;;;5085910;28;20054;-70
2020/12/29 09:20:14;;;;;;;1.23;0.85;;;2.30;99.90;;;;;;5073045;28;20478;-70
2020/12/29 09:22:51;;;;;;;2.30;0.82;;;2.20;99.90;;;;;;5071379;28;20040;-70
2020/12/29 09:25:27;;;;;;;2.47;1.08;;;2.20;99.90;;;;;;5089590;28;20048;-69
2020/12/29 09:28:23;;;;;;;2.75;0.90;;;2.30;99.90;;;;;;5090121;28;20052;-69
2020/12/29 09:31:07;;;;;;;1.23;0.80;;;2.30;99.90;;;;;;5090500;28;20048;-69
2020/12/29 09:33:35;;;;;;;1.35;0.98;;;2.30;99.90;;;;;;5091217;28;20055;-70
2020/12/29 09:36:03;;;;;;;1.42;0.80;;;2.40;99.90;;;;;;5091191;28;20063;-70
2020/12/29 09:38:33;;;;;;;1.58;0.90;;;2.30;99.90;;;;;;5087672;28;20060;-70
2020/12/29 09:41:03;;;;;;;1.65;0.88;;;2.40;99.90;;;;;;5084547;28;20070;-68
2020/12/29 09:43:30;;;;;;;2.00;1.10;;;2.50;99.90;;;;;;5090109;28;20052;-69
2020/12/29 09:45:57;;;;;;;1.27;0.70;;;2.50;99.90;;;;;;5091949;28;20048;-70
2020/12/29 09:48:25;;;;;;;1.30;0.80;;;2.60;99.90;;;;;;5090782;28;20486;-69
2020/12/29 09:50:52;;;;;;;4.47;0.90;;;2.70;99.90;;;;;;5092524;28;20044;-68
2020/12/29 09:53:18;;;;;;;1.77;1.00;;;2.80;99.90;;;;;;5079950;28;20047;-66
2020/12/29 09:55:45;;;;;;;1.13;0.77;;;2.90;99.90;;;;;;5084913;28;20051;-66
2020/12/29 09:58:11;;;;;;;1.48;0.85;;;2.90;99.90;;;;;;5080682;28;20044;-68
2020/12/29 10:00:38;;;;;;;1.65;0.90;;;2.90;99.90;;;;;;5088533;28;20040;-68
2020/12/29 10:03:05;;;;;;;1.15;0.90;;;2.90;99.90;;;;;;5090865;28;20055;-67
2020/12/29 10:05:32;;;;;;;2.40;0.90;;;2.90;99.90;;;;;;5088935;28;20051;-67
2020/12/29 10:07:59;;;;;;;2.17;1.08;;;3.00;99.90;;;;;;5091802;28;20052;-67
2020/12/29 10:10:26;;;;;;;1.48;0.95;;;3.00;99.90;;;;;;5089521;28;20421;-67
2020/12/29 10:12:52;;;;;;;1.70;1.10;;;3.00;99.90;;;;;;5072678;28;20135;-68
2020/12/29 10:15:19;;;;;;;1.77;1.00;;;3.00;99.90;;;;;;5089863;28;20060;-68
2020/12/29 10:17:45;;;;;;;2.53;0.80;;;3.00;99.90;;;;;;5090533;28;20131;-67
2020/12/29 10:20:12;;;;;;;2.22;0.98;;;3.10;99.90;;;;;;5073997;28;20052;-65
2020/12/29 10:22:38;;;;;;;1.65;0.90;;;3.10;99.90;;;;;;5093942;28;20055;-67
2020/12/29 10:25:10;;;;;;;2.47;1.10;;;3.10;99.90;;;;;;5094800;28;20043;-67
2020/12/29 10:27:37;;;;;;;1.50;1.10;;;3.20;99.90;;;;;;5080766;28;20102;-67
2020/12/29 10:30:04;;;;;;;2.50;1.00;;;3.20;99.90;;;;;;5095133;28;20054;-67
2020/12/29 10:32:31;;;;;;;1.42;0.90;;;3.20;99.90;;;;;;5094308;28;20134;-67
2020/12/29 10:34:57;;;;;;;1.25;0.90;;;3.30;99.90;;;;;;5093990;28;20071;-67
2020/12/29 10:37:24;;;;;;;1.75;0.95;;;3.40;99.90;;;;;;5095502;28;20086;-67
2020/12/29 10:39:50;;;;;;;1.33;1.05;;;3.50;99.90;;;;;;5094781;28;20048;-66
2020/12/29 10:42:17;;;;;;;1.95;1.10;;;3.50;99.90;;;;;;5095313;28;20044;-68
2020/12/29 10:44:43;;;;;;;1.77;1.10;;;3.60;99.90;;;;;;5094941;28;20143;-69
2020/12/29 10:47:10;;;;;;;3.70;1.40;;;3.70;99.90;;;;;;5095030;28;20046;-66
2020/12/29 10:49:36;;;;;;;2.70;1.30;;;3.70;99.90;;;;;;5094463;28;20044;-67
2020/12/29 10:52:02;;;;;;;1.30;1.00;;;3.70;99.90;;;;;;5085987;28;20492;-67
2020/12/29 10:54:29;;;;;;;2.55;1.20;;;3.70;99.90;;;;;;5093020;28;20786;-66
2020/12/29 10:56:56;;;;;;;3.03;1.35;;;3.70;99.90;;;;;;5093172;28;20052;-66
2020/12/29 10:59:22;;;;;;;2.72;1.00;;;3.70;99.90;;;;;;5093796;28;20050;-67
2020/12/29 11:01:48;;;;;;;2.13;1.10;;;3.60;99.90;;;;;;5092282;28;20052;-68
2020/12/29 11:04:15;;;;;;;1.45;1.00;;;3.70;99.90;;;;;;5093559;28;20048;-68
2020/12/29 11:06:42;;;;;;;3.90;1.50;;;3.90;99.90;;;;;;5093067;28;20083;-67
2020/12/29 11:09:08;;;;;;;3.42;1.35;;;3.90;99.90;;;;;;5094655;28;20047;-67
2020/12/29 11:11:35;;;;;;;2.03;1.08;;;4.00;99.90;;;;;;5075319;28;20083;-67
2020/12/29 11:14:01;;;;;;;1.33;0.90;;;4.00;99.90;;;;;;5094476;28;20428;-67
2020/12/29 11:16:28;;;;;;;3.47;1.17;;;4.00;99.90;;;;;;5109218;28;20402;-65
2020/12/29 11:18:54;;;;;;;3.28;1.23;;;4.00;99.90;;;;;;5076208;28;20052;-68
2020/12/29 11:21:25;;;;;;;1.52;1.08;;;4.00;99.90;;;;;;5092345;28;20054;-67
2020/12/29 11:23:52;;;;;;;2.00;1.27;;;4.00;99.90;;;;;;5093341;28;20062;-66
2020/12/29 11:26:21;;;;;;;2.20;1.10;;;3.90;99.90;;;;;;5088514;28;20041;-68
2020/12/29 11:28:48;;;;;;;2.08;1.25;;;3.90;99.90;;;;;;5084382;28;20040;-66
2020/12/29 11:31:19;;;;;;;2.03;1.08;;;3.80;99.90;;;;;;5091365;28;20044;-65
2020/12/29 11:33:47;;;;;;;2.23;1.20;;;3.80;99.90;;;;;;5088991;28;20045;-67
2020/12/29 11:36:18;;;;;;;2.15;1.00;;;3.80;99.90;;;;;;5089822;28;20056;-66
2020/12/29 11:38:45;;;;;;;2.95;1.10;;;3.80;99.90;;;;;;5092412;28;20058;-67
2020/12/29 11:41:13;;;;;;;2.58;1.30;;;3.80;99.90;;;;;;5093560;28;20044;-67
2020/12/29 11:43:40;;;;;;;2.33;1.30;;;3.80;99.90;;;;;;5075301;28;20044;-68
2020/12/29 11:46:08;;;;;;;2.25;1.20;;;4.00;99.90;;;;;;5093383;28;20127;-67
2020/12/29 11:48:35;;;;;;;3.25;1.20;;;4.00;99.90;;;;;;5082798;28;20489;-67
2020/12/29 11:51:02;;;;;;;1.67;1.20;;;4.00;99.90;;;;;;5086840;28;20044;-68
2020/12/29 11:53:32;;;;;;;3.15;1.40;;;4.00;99.90;;;;;;5087284;28;20717;-66
2020/12/29 11:55:58;;;;;;;2.17;1.30;;;4.20;99.90;;;;;;5091559;28;20071;-68
2020/12/29 11:58:26;;;;;;;2.38;1.30;;;4.20;99.90;;;;;;5093187;28;20055;-67
2020/12/29 12:00:53;;;;;;;3.35;1.50;;;4.40;99.90;;;;;;5092213;28;20405;-67
2020/12/29 12:03:24;;;;;;;3.40;1.60;;;4.90;99.90;;;;;;5092805;28;20105;-67
2020/12/29 12:05:50;;;;;;;3.75;1.38;;;5.20;99.90;;;;;;5072906;28;20478;-68
2020/12/29 12:08:17;;;;;;;3.42;1.48;;;5.20;99.90;;;;;;5086209;28;20146;-67
2020/12/29 12:10:43;;;;;;;2.78;1.52;;;5.10;99.90;;;;;;5074079;28;20041;-68
2020/12/29 12:13:10;;;;;;;3.65;1.40;;;4.90;99.90;;;;;;5093874;28;20048;-67
2020/12/29 12:15:51;;;;;;;3.47;1.70;;;4.80;99.90;;;;;;5091838;28;20063;-67
2020/12/29 12:18:34;;;;;;;4.78;2.00;;;4.70;99.90;;;;;;5081362;28;20466;-66
2020/12/29 12:21:11;;;;;;;2.67;1.30;;;4.60;99.90;;;;;;5092350;28;20104;-66
2020/12/29 12:23:38;;;;;;;5.55;1.70;;;4.50;99.90;;;;;;5091395;28;20051;-69
2020/12/29 12:26:04;;;;;;;3.28;1.20;;;4.50;99.90;;;;;;5092389;28;20043;-66
2020/12/29 12:28:32;;;;;;;1.70;1.13;;;4.50;99.90;;;;;;5082643;28;20547;-66
2020/12/29 12:30:59;;;;;;;2.80;1.30;;;4.50;99.90;;;;;;5072252;28;20044;-66
2020/12/29 12:33:25;;;;;;;3.75;1.40;;;4.40;99.90;;;;;;5090805;28;20189;-67
2020/12/29 12:35:52;;;;;;;2.00;1.23;;;4.40;99.90;;;;;;5072599;28;20066;-65
2020/12/29 12:38:18;;;;;;;2.13;1.30;;;4.40;99.90;;;;;;5090532;28;20131;-66
2020/12/29 12:40:45;;;;;;;2.45;1.75;;;4.50;99.90;;;;;;5090294;28;20055;-65
2020/12/29 12:43:12;;;;;;;2.17;1.20;;;4.50;99.90;;;;;;5088581;28;20047;-66
2020/12/29 12:45:38;;;;;;;1.33;1.05;;;4.60;99.90;;;;;;5089415;28;20044;-66
2020/12/29 12:48:05;;;;;;;2.13;1.20;;;4.70;99.90;;;;;;5091947;28;20044;-66
2020/12/29 12:50:31;;;;;;;2.83;1.40;;;4.70;99.90;;;;;;5089596;28;20079;-67
2020/12/29 12:52:58;;;;;;;5.50;1.65;;;4.80;99.90;;;;;;5087014;28;20052;-68
2020/12/29 12:55:25;;;;;;;1.42;1.00;;;4.90;99.90;;;;;;5091412;28;20056;-67
2020/12/29 12:57:52;;;;;;;1.67;1.13;;;5.10;99.90;;;;;;5079301;28;20060;-65
2020/12/29 13:00:18;;;;;;;3.15;1.30;;;5.20;99.90;;;;;;5073391;28;20048;-68
2020/12/29 13:02:45;;;;;;;2.38;1.40;;;6.10;99.90;;;;;;5073459;28;20054;-68
2020/12/29 13:05:11;;;;;;;1.23;1.13;;;7.30;99.90;;;;;;5091956;28;20059;-67
2020/12/29 13:07:38;;;;;;;1.70;1.60;;;8.30;99.90;;;;;;5089840;28;20046;-67
2020/12/29 13:10:04;;;;;;;4.25;1.70;;;8.40;99.90;;;;;;5091781;28;20040;-65
2020/12/29 13:12:33;;;;;;;2.08;1.70;;;8.40;99.90;;;;;;5084128;28;20048;-66
2020/12/29 13:14:59;;;;;;;2.20;1.80;;;8.50;99.90;;;;;;5107597;28;20060;-67
2020/12/29 13:17:26;;;;;;;1.90;1.80;;;8.50;99.90;;;;;;5091009;28;20081;-68
2020/12/29 13:19:53;;;;;;;2.10;1.90;;;9.40;99.90;;;;;;5091348;28;20504;-67
2020/12/29 13:22:20;;;;;;;3.33;2.50;;;10.90;99.90;;;;;;5072553;28;20051;-67
2020/12/29 13:24:46;;;;;;;3.55;2.63;;;11.30;99.90;;;;;;5090711;28;20396;-67
2020/12/29 13:27:13;;;;;;;4.32;3.22;;;12.10;99.90;;;;;;5088774;28;20040;-66
2020/12/29 13:29:39;;;;;;;5.53;3.25;;;11.70;99.90;;;;;;5089740;28;20051;-64
2020/12/29 13:32:06;;;;;;;4.65;3.40;;;11.00;99.90;;;;;;5090126;28;20048;-67
2020/12/29 13:34:32;;;;;;;3.70;3.20;;;9.40;99.90;;;;;;5090699;28;20039;-65
2020/12/29 13:36:59;;;;;;;3.97;3.17;;;8.00;99.90;;;;;;5090187;28;20490;-66
2020/12/29 13:39:28;;;;;;;4.57;3.10;;;7.00;99.90;;;;;;5089938;28;20118;-68
2020/12/29 13:42:12;;;;;;;4.30;2.70;;;6.00;99.90;;;;;;5104949;28;20060;-68
2020/12/29 13:44:39;;;;;;;4.53;2.80;;;5.60;99.90;;;;;;5086325;28;20041;-68
2020/12/29 13:47:05;;;;;;;4.15;2.40;;;5.30;99.90;;;;;;5087614;28;20058;-65
2020/12/29 13:49:34;;;;;;;5.25;2.47;;;5.30;99.90;;;;;;5089605;28;20086;-66
2020/12/29 13:52:00;;;;;;;4.97;2.85;;;6.10;99.90;;;;;;5072156;28;20040;-67